createdAt,value
2022-11-26T00:02:41.958Z,100.00
2022-11-26T00:05:47.624Z,100.00
2022-11-26T00:08:50.477Z,100.00
2022-11-26T00:11:53.201Z,100.00
2022-11-26T00:14:57.573Z,100.00
2022-11-26T00:18:00.968Z,100.00
2022-11-26T00:21:03.855Z,100.00
2022-11-26T00:24:13.083Z,100.00
2022-11-26T00:27:16.717Z,100.00
2022-11-26T00:30:23.782Z,100.00
2022-11-26T00:33:27.388Z,100.00
2022-11-26T00:36:32.598Z,100.00
2022-11-26T00:39:35.328Z,100.00
2022-11-26T00:42:38.944Z,100.00
2022-11-26T00:45:43.704Z,100.00
2022-11-26T00:48:46.678Z,100.00
2022-11-26T00:51:49.515Z,100.00
2022-11-26T00:54:52.308Z,100.00
2022-11-26T00:57:55.200Z,100.00
2022-11-26T01:01:00.669Z,100.00
2022-11-26T01:04:03.957Z,100.00
2022-11-26T01:07:06.752Z,100.00
2022-11-26T01:10:17.286Z,100.00
2022-11-26T01:13:20.144Z,100.00
2022-11-26T01:16:26.634Z,100.00
2022-11-26T01:19:29.422Z,100.00
2022-11-26T01:22:32.237Z,100.00
2022-11-26T01:25:34.949Z,100.00
2022-11-26T01:28:37.746Z,100.00
2022-11-26T01:31:41.870Z,100.00
2022-11-26T01:34:44.776Z,100.00
2022-11-26T01:37:47.704Z,100.00
2022-11-26T01:40:56.228Z,100.00
2022-11-26T01:44:00.430Z,100.00
2022-11-26T01:47:20.902Z,100.00
2022-11-26T01:50:52.252Z,100.00
2022-11-26T01:53:59.400Z,100.00
2022-11-26T01:57:11.496Z,100.00
2022-11-26T02:00:15.518Z,100.00
2022-11-26T02:03:21.210Z,100.00
2022-11-26T02:06:29.170Z,100.00
2022-11-26T02:09:32.829Z,100.00
2022-11-26T02:12:35.754Z,100.00
2022-11-26T02:15:49.873Z,100.00
2022-11-26T02:19:08.545Z,100.00
2022-11-26T02:22:27.797Z,100.00
2022-11-26T02:25:47.263Z,100.00
2022-11-26T02:29:04.145Z,100.00
2022-11-26T02:32:11.366Z,100.00
2022-11-26T02:35:20.401Z,100.00
2022-11-26T02:38:25.878Z,100.00
2022-11-26T02:41:33.911Z,100.00
2022-11-26T02:44:43.153Z,100.00
2022-11-26T02:47:50.276Z,100.00
2022-11-26T02:50:57.599Z,100.00
2022-11-26T02:54:01.459Z,100.00
2022-11-26T02:57:08.194Z,100.00
2022-11-26T03:00:11.831Z,100.00
2022-11-26T03:03:24.168Z,100.00
2022-11-26T03:06:31.162Z,100.00
2022-11-26T03:09:41.270Z,100.00
2022-11-26T03:12:44.010Z,100.00
2022-11-26T03:15:46.839Z,100.00
2022-11-26T03:18:50.962Z,100.00
2022-11-26T03:21:53.677Z,100.00
2022-11-26T03:24:56.422Z,100.00
2022-11-26T03:27:59.227Z,100.00
2022-11-26T03:31:02.118Z,100.00
2022-11-26T03:34:06.174Z,100.00
2022-11-26T03:37:08.889Z,100.00
2022-11-26T03:40:12.183Z,100.00
2022-11-26T03:43:14.897Z,100.00
2022-11-26T03:46:17.837Z,100.00
2022-11-26T03:49:22.034Z,100.00
2022-11-26T03:52:24.770Z,100.00
2022-11-26T03:55:27.554Z,100.00
2022-11-26T03:58:31.238Z,100.00
2022-11-26T04:01:34.232Z,100.00
2022-11-26T04:04:38.547Z,100.00
2022-11-26T04:07:41.610Z,100.00
2022-11-26T04:10:44.461Z,100.00
2022-11-26T04:13:47.193Z,100.00
2022-11-26T04:16:50.009Z,100.00
2022-11-26T04:19:54.319Z,100.00
2022-11-26T04:22:57.074Z,100.00
2022-11-26T04:25:59.940Z,100.00
2022-11-26T04:29:03.320Z,100.00
2022-11-26T04:32:06.610Z,100.00
2022-11-26T04:35:11.493Z,100.00
2022-11-26T04:38:14.430Z,100.00
2022-11-26T04:41:17.215Z,100.00
2022-11-26T04:44:19.927Z,100.00
2022-11-26T04:47:22.694Z,100.00
2022-11-26T04:50:26.832Z,100.00
2022-11-26T04:53:29.552Z,100.00
2022-11-26T04:56:32.271Z,100.00
2022-11-26T04:59:35.072Z,100.00
2022-11-26T05:02:37.853Z,100.00
2022-11-26T05:05:42.001Z,100.00
2022-11-26T05:08:44.758Z,100.00
2022-11-26T05:11:47.498Z,100.00
2022-11-26T05:14:50.228Z,100.00
2022-11-26T05:17:52.938Z,100.00
2022-11-26T05:20:57.010Z,100.00
2022-11-26T05:23:59.918Z,100.00
2022-11-26T05:27:03.211Z,100.00
2022-11-26T05:30:07.421Z,100.00
2022-11-26T05:33:10.136Z,100.00
2022-11-26T05:36:14.195Z,100.00
2022-11-26T05:39:17.088Z,100.00
2022-11-26T05:42:19.945Z,100.00
2022-11-26T05:45:23.251Z,100.00
2022-11-26T05:48:26.050Z,100.00
2022-11-26T05:51:30.118Z,100.00
2022-11-26T05:54:32.860Z,100.00
2022-11-26T05:57:35.638Z,100.00
2022-11-26T06:00:38.360Z,100.00
2022-11-26T06:03:41.368Z,100.00
2022-11-26T06:06:45.471Z,100.00
2022-11-26T06:09:48.230Z,100.00
2022-11-26T06:12:50.945Z,100.00
2022-11-26T06:15:53.841Z,100.00
2022-11-26T06:18:57.418Z,100.00
2022-11-26T06:22:01.519Z,100.00
2022-11-26T06:25:04.428Z,100.00
2022-11-26T06:28:07.185Z,100.00
2022-11-26T06:31:11.010Z,100.00
2022-11-26T06:34:15.396Z,100.00
2022-11-26T06:37:19.550Z,100.00
2022-11-26T06:40:22.317Z,100.00
2022-11-26T06:43:25.019Z,100.00
2022-11-26T06:46:27.848Z,100.00
2022-11-26T06:49:30.747Z,100.00
2022-11-26T06:52:34.948Z,100.00
2022-11-26T06:55:38.182Z,100.00
2022-11-26T06:58:41.022Z,100.00
2022-11-26T07:01:43.837Z,100.00
2022-11-26T07:04:46.611Z,100.00
2022-11-26T07:07:50.813Z,100.00
2022-11-26T07:10:53.789Z,100.00
2022-11-26T07:13:56.567Z,100.00
2022-11-26T07:16:59.345Z,100.00
2022-11-26T07:20:02.222Z,100.00
2022-11-26T07:23:06.398Z,100.00
2022-11-26T07:26:10.674Z,100.00
2022-11-26T07:29:14.551Z,100.00
2022-11-26T07:32:17.288Z,100.00
2022-11-26T07:35:20.079Z,100.00
2022-11-26T07:38:24.144Z,100.00
2022-11-26T07:41:28.138Z,100.00
2022-11-26T07:44:30.881Z,100.00
2022-11-26T07:47:33.615Z,100.00
2022-11-26T07:50:36.343Z,100.00
2022-11-26T07:53:40.463Z,100.00
2022-11-26T07:56:43.158Z,100.00
2022-11-26T07:59:45.881Z,100.00
2022-11-26T08:02:48.593Z,100.00
2022-11-26T08:05:51.333Z,100.00
2022-11-26T08:08:55.676Z,100.00
2022-11-26T08:11:58.465Z,100.00
2022-11-26T08:15:01.933Z,100.00
2022-11-26T08:18:04.898Z,100.00
2022-11-26T08:21:08.396Z,100.00
2022-11-26T08:24:15.760Z,100.00
2022-11-26T08:27:18.520Z,100.00
2022-11-26T08:30:21.442Z,100.00
2022-11-26T08:33:24.471Z,100.00
2022-11-26T08:36:27.941Z,100.00
2022-11-26T08:39:32.032Z,100.00
2022-11-26T08:42:34.886Z,100.00
2022-11-26T08:45:37.600Z,100.00
2022-11-26T08:48:40.657Z,100.00
2022-11-26T08:51:43.711Z,100.00
2022-11-26T08:54:48.155Z,100.00
2022-11-26T08:57:51.200Z,100.00
2022-11-26T09:00:54.065Z,100.00
2022-11-26T09:03:59.230Z,100.00
2022-11-26T09:07:02.287Z,100.00
2022-11-26T09:10:07.937Z,100.00
2022-11-26T09:13:10.690Z,100.00
2022-11-26T09:16:13.445Z,100.00
2022-11-26T09:19:17.670Z,100.00
2022-11-26T09:22:20.370Z,100.00
2022-11-26T09:25:24.460Z,100.00
2022-11-26T09:28:35.066Z,100.00
2022-11-26T09:31:49.707Z,100.00
2022-11-26T09:35:00.494Z,100.00
2022-11-26T09:38:03.693Z,100.00
2022-11-26T09:41:16.661Z,100.00
2022-11-26T09:44:34.974Z,100.00
2022-11-26T09:47:41.692Z,100.00
2022-11-26T09:50:46.724Z,100.00
2022-11-26T09:53:52.561Z,100.00
2022-11-26T09:57:03.394Z,100.00
2022-11-26T10:00:16.881Z,100.00
2022-11-26T10:03:21.026Z,100.00
2022-11-26T10:06:37.460Z,98.19
2022-11-26T10:09:55.642Z,97.53
2022-11-26T10:13:19.148Z,97.86
2022-11-26T10:16:28.724Z,98.52
2022-11-26T10:19:41.040Z,99.18
2022-11-26T10:22:56.760Z,98.93
2022-11-26T10:26:06.754Z,97.40
2022-11-26T10:29:21.714Z,97.46
2022-11-26T10:32:27.490Z,97.78
2022-11-26T10:35:31.423Z,97.30
2022-11-26T10:38:34.149Z,97.68
2022-11-26T10:41:38.809Z,97.57
2022-11-26T10:44:42.654Z,96.99
2022-11-26T10:47:47.002Z,97.70
2022-11-26T10:51:02.238Z,97.93
2022-11-26T10:54:07.532Z,98.15
2022-11-26T10:57:15.334Z,98.31
2022-11-26T11:00:39.233Z,98.52
2022-11-26T11:04:08.794Z,98.25
2022-11-26T11:07:29.539Z,98.33
2022-11-26T11:10:32.292Z,98.67
2022-11-26T11:13:42.494Z,99.08
2022-11-26T11:16:46.563Z,100.00
2022-11-26T11:19:50.759Z,100.00
2022-11-26T11:22:59.958Z,100.00
2022-11-26T11:26:05.723Z,100.00
2022-11-26T11:29:25.345Z,100.00
2022-11-26T11:32:36.086Z,100.00
2022-11-26T11:35:40.364Z,100.00
2022-11-26T11:38:49.265Z,100.00
2022-11-26T11:41:52.382Z,100.00
2022-11-26T11:44:57.254Z,100.00
2022-11-26T11:48:05.661Z,100.00
2022-11-26T11:51:18.955Z,100.00
2022-11-26T11:54:26.923Z,100.00
2022-11-26T11:58:03.371Z,100.00
2022-11-26T12:01:15.195Z,100.00
2022-11-26T12:04:31.995Z,100.00
2022-11-26T12:07:41.989Z,98.83
2022-11-26T12:10:54.115Z,99.62
2022-11-26T12:14:02.225Z,99.44
2022-11-26T12:17:09.290Z,99.29
2022-11-26T12:20:21.775Z,99.98
2022-11-26T12:23:31.013Z,100.00
2022-11-26T12:26:38.133Z,100.00
2022-11-26T12:29:45.214Z,100.00
2022-11-26T12:32:52.176Z,100.00
2022-11-26T12:35:59.835Z,99.52
2022-11-26T12:39:17.799Z,99.02
2022-11-26T12:42:26.808Z,99.23
2022-11-26T12:45:42.555Z,98.76
2022-11-26T12:48:52.408Z,98.63
2022-11-26T12:52:12.239Z,98.07
2022-11-26T12:55:20.596Z,95.56
2022-11-26T12:58:28.289Z,95.96
2022-11-26T13:01:33.091Z,96.57
2022-11-26T13:04:38.209Z,96.77
2022-11-26T13:07:59.354Z,96.96
2022-11-26T13:11:17.025Z,96.30
2022-11-26T13:14:28.837Z,96.16
2022-11-26T13:17:44.561Z,96.62
2022-11-26T13:21:00.426Z,96.14
2022-11-26T13:24:23.768Z,96.01
2022-11-26T13:27:49.545Z,95.54
2022-11-26T13:31:07.138Z,95.10
2022-11-26T13:34:27.479Z,95.19
2022-11-26T13:38:00.723Z,95.87
2022-11-26T13:41:22.611Z,95.84
2022-11-26T13:44:52.862Z,95.69
2022-11-26T13:48:00.738Z,95.50
2022-11-26T13:51:10.588Z,95.88
2022-11-26T13:54:17.647Z,95.75
2022-11-26T13:57:24.485Z,95.72
2022-11-26T14:00:31.472Z,95.61
2022-11-26T14:03:52.169Z,95.95
2022-11-26T14:07:20.238Z,95.82
2022-11-26T14:10:44.321Z,95.15
2022-11-26T14:14:24.581Z,94.79
2022-11-26T14:17:34.912Z,94.72
2022-11-26T14:21:12.930Z,94.87
2022-11-26T14:24:55.193Z,95.12
2022-11-26T14:28:02.338Z,94.72
2022-11-26T14:31:13.258Z,94.75
2022-11-26T14:34:23.802Z,94.33
2022-11-26T14:37:28.779Z,94.49
2022-11-26T14:40:33.592Z,94.45
2022-11-26T14:43:37.681Z,94.48
2022-11-26T14:46:41.841Z,93.88
2022-11-26T14:49:50.318Z,93.29
2022-11-26T14:52:57.359Z,93.30
2022-11-26T14:56:00.936Z,92.93
2022-11-26T14:59:07.320Z,92.87
2022-11-26T15:02:22.014Z,93.26
2022-11-26T15:05:27.664Z,93.23
2022-11-26T15:08:30.687Z,93.22
2022-11-26T15:11:34.987Z,92.70
2022-11-26T15:14:44.134Z,92.70
2022-11-26T15:17:52.959Z,93.13
2022-11-26T15:20:56.600Z,93.08
2022-11-26T15:24:03.184Z,93.06
2022-11-26T15:27:06.100Z,92.97
2022-11-26T15:30:20.720Z,93.40
2022-11-26T15:33:24.146Z,93.35
2022-11-26T15:36:26.934Z,93.51
2022-11-26T15:39:31.727Z,93.28
2022-11-26T15:42:35.352Z,92.33
2022-11-26T15:45:41.561Z,92.72
2022-11-26T15:48:52.902Z,92.72
2022-11-26T15:51:59.635Z,93.40
2022-11-26T15:55:15.654Z,93.81
2022-11-26T15:58:23.368Z,93.87
2022-11-26T16:01:29.998Z,93.91
2022-11-26T16:04:40.913Z,94.38
2022-11-26T16:07:57.538Z,94.30
2022-11-26T16:11:07.930Z,94.17
2022-11-26T16:14:24.816Z,94.50
2022-11-26T16:17:28.933Z,94.15
2022-11-26T16:20:31.701Z,94.05
2022-11-26T16:23:34.822Z,93.96
2022-11-26T16:26:57.502Z,94.25
2022-11-26T16:30:03.735Z,94.27
2022-11-26T16:33:08.406Z,94.10
2022-11-26T16:36:27.501Z,94.20
2022-11-26T16:39:36.078Z,94.35
2022-11-26T16:42:42.034Z,94.34
2022-11-26T16:45:45.141Z,94.69
2022-11-26T16:48:49.559Z,94.83
2022-11-26T16:51:52.311Z,95.25
2022-11-26T16:55:23.570Z,95.10
2022-11-26T16:58:28.830Z,95.44
2022-11-26T17:01:31.667Z,95.07
2022-11-26T17:04:36.012Z,95.57
2022-11-26T17:07:42.865Z,95.83
2022-11-26T17:10:48.143Z,95.86
2022-11-26T17:13:51.168Z,95.78
2022-11-26T17:16:53.970Z,95.95
2022-11-26T17:19:58.138Z,95.96
2022-11-26T17:23:00.957Z,95.65
2022-11-26T17:26:08.420Z,95.38
2022-11-26T17:29:13.948Z,95.37
2022-11-26T17:32:18.994Z,95.66
2022-11-26T17:35:23.126Z,95.34
2022-11-26T17:38:25.983Z,95.17
2022-11-26T17:41:28.762Z,94.69
2022-11-26T17:44:31.471Z,95.10
2022-11-26T17:47:34.249Z,95.39
2022-11-26T17:50:38.339Z,95.18
2022-11-26T17:53:41.377Z,95.28
2022-11-26T17:56:44.130Z,94.76
2022-11-26T17:59:46.972Z,94.63
2022-11-26T18:02:50.126Z,94.90
2022-11-26T18:05:54.361Z,95.23
2022-11-26T18:08:57.065Z,95.36
2022-11-26T18:12:00.798Z,95.27
2022-11-26T18:15:04.052Z,95.13
2022-11-26T18:18:07.521Z,94.88
2022-11-26T18:21:13.031Z,95.21
2022-11-26T18:24:15.777Z,95.32
2022-11-26T18:27:18.706Z,95.32
2022-11-26T18:30:21.842Z,95.40
2022-11-26T18:33:24.546Z,95.18
2022-11-26T18:36:29.331Z,95.47
2022-11-26T18:39:32.064Z,95.61
2022-11-26T18:42:37.539Z,95.47
2022-11-26T18:45:42.864Z,95.60
2022-11-26T18:48:47.547Z,95.85
2022-11-26T18:51:51.786Z,95.80
2022-11-26T18:54:54.498Z,96.01
2022-11-26T18:57:57.303Z,96.05
2022-11-26T19:01:00.162Z,96.09
2022-11-26T19:04:03.959Z,96.12
2022-11-26T19:07:08.045Z,96.01
2022-11-26T19:10:12.236Z,96.16
2022-11-26T19:13:15.241Z,96.12
2022-11-26T19:16:20.184Z,96.10
2022-11-26T19:19:23.069Z,95.91
2022-11-26T19:22:27.250Z,95.65
2022-11-26T19:25:30.604Z,95.63
2022-11-26T19:28:33.753Z,95.74
2022-11-26T19:31:39.000Z,95.57
2022-11-26T19:34:41.821Z,95.88
2022-11-26T19:37:46.017Z,95.25
2022-11-26T19:40:48.721Z,95.00
2022-11-26T19:43:51.560Z,95.05
2022-11-26T19:46:54.341Z,95.30
2022-11-26T19:49:57.057Z,95.47
2022-11-26T19:53:02.178Z,95.63
2022-11-26T19:56:06.865Z,95.75
2022-11-26T19:59:09.764Z,95.60
2022-11-26T20:02:12.652Z,95.76
2022-11-26T20:05:16.496Z,95.74
2022-11-26T20:08:21.591Z,96.28
2022-11-26T20:11:24.856Z,96.26
2022-11-26T20:14:27.559Z,96.17
2022-11-26T20:17:30.856Z,95.76
2022-11-26T20:20:33.705Z,95.41
2022-11-26T20:23:38.280Z,94.85
2022-11-26T20:26:42.786Z,94.59
2022-11-26T20:29:45.592Z,94.58
2022-11-26T20:32:49.094Z,94.48
2022-11-26T20:35:51.870Z,94.08
2022-11-26T20:38:57.313Z,94.30
2022-11-26T20:42:00.043Z,94.89
2022-11-26T20:45:04.905Z,95.39
2022-11-26T20:48:07.727Z,95.83
2022-11-26T20:51:13.528Z,95.74
2022-11-26T20:54:17.681Z,95.89
2022-11-26T20:57:21.503Z,95.90
2022-11-26T21:00:27.580Z,95.96
2022-11-26T21:03:31.030Z,95.41
2022-11-26T21:06:35.919Z,95.78
2022-11-26T21:09:40.230Z,95.36
2022-11-26T21:12:43.668Z,95.61
2022-11-26T21:15:47.896Z,95.75
2022-11-26T21:18:50.599Z,95.71
2022-11-26T21:21:53.349Z,96.07
2022-11-26T21:24:57.434Z,95.61
2022-11-26T21:28:00.134Z,96.04
2022-11-26T21:31:08.243Z,95.99
2022-11-26T21:34:12.145Z,95.73
2022-11-26T21:37:14.917Z,95.96
2022-11-26T21:40:19.254Z,95.85
2022-11-26T21:43:21.959Z,95.51
2022-11-26T21:46:26.920Z,95.12
2022-11-26T21:49:30.922Z,95.27
2022-11-26T21:52:33.722Z,95.43
2022-11-26T21:55:37.798Z,95.21
2022-11-26T21:58:40.920Z,95.49
2022-11-26T22:01:44.380Z,95.42
2022-11-26T22:04:47.283Z,95.03
2022-11-26T22:07:50.720Z,94.26
2022-11-26T22:10:54.906Z,94.70
2022-11-26T22:13:57.750Z,94.80
2022-11-26T22:17:00.455Z,93.79
2022-11-26T22:20:05.930Z,94.04
2022-11-26T22:23:08.620Z,94.26
2022-11-26T22:26:12.948Z,93.05
2022-11-26T22:29:17.142Z,93.02
2022-11-26T22:32:20.100Z,94.12
2022-11-26T22:35:22.793Z,93.35
2022-11-26T22:38:25.515Z,94.26
2022-11-26T22:41:29.629Z,93.62
2022-11-26T22:44:33.962Z,94.01
2022-11-26T22:47:36.885Z,93.63
2022-11-26T22:50:39.886Z,93.62
2022-11-26T22:53:43.522Z,93.59
2022-11-26T22:56:47.721Z,94.81
2022-11-26T22:59:50.417Z,95.69
2022-11-26T23:02:53.206Z,96.43
2022-11-26T23:05:56.772Z,96.80
2022-11-26T23:09:00.493Z,96.57
2022-11-26T23:12:05.388Z,96.34
2022-11-26T23:15:09.347Z,95.92
2022-11-26T23:18:13.666Z,95.69
2022-11-26T23:21:18.805Z,95.70
2022-11-26T23:24:21.933Z,95.77
2022-11-26T23:27:26.007Z,95.83
2022-11-26T23:30:29.610Z,96.38
2022-11-26T23:33:32.381Z,96.23
2022-11-26T23:36:36.680Z,96.27
2022-11-26T23:39:39.627Z,96.29
2022-11-26T23:42:43.889Z,96.53
2022-11-26T23:45:46.682Z,96.22
2022-11-26T23:48:50.428Z,96.05
2022-11-26T23:51:53.310Z,96.09
2022-11-26T23:54:56.039Z,96.22
2022-11-26T23:58:00.119Z,96.27
